Time;durP1;ratioP1;P1;durP2;ratioP2;P2;SDS_P1;SDS_P2;PMS_P1;PMS_P2;Temp;Humidity;BMP_temperature;BMP_pressure;BME280_temperature;BME280_humidity;BME280_pressure;Samples;Min_cycle;Max_cycle;Signal;HPM_P1;HPM_P2
2023/08/24 00:00:23;;;;;;;5.63;5.10;;;;;;;;;;5049153;28;20206;-78
2023/08/24 00:02:50;;;;;;;5.82;5.30;;;;;;;;;;5047585;28;20218;-77
2023/08/24 00:05:17;;;;;;;7.18;5.07;;;;;;;;;;5063751;28;20222;-77
2023/08/24 00:07:45;;;;;;;6.90;5.10;;;;;;;;;;5047014;28;20586;-76
2023/08/24 00:10:12;;;;;;;7.13;5.20;;;;;;;;;;5045618;28;20217;-76
2023/08/24 00:12:39;;;;;;;5.72;5.20;;;;;;;;;;5032495;28;20684;-75
2023/08/24 00:15:08;;;;;;;6.65;5.45;;;;;;;;;;5027432;28;20269;-78
2023/08/24 00:17:35;;;;;;;5.53;5.03;;;;;;;;;;5028146;28;20256;-76
2023/08/24 00:20:04;;;;;;;6.10;5.18;;;;;;;;;;5031421;28;20206;-76
2023/08/24 00:22:31;;;;;;;6.20;5.47;;;;;;;;;;5029823;28;20320;-77
2023/08/24 00:24:58;;;;;;;6.05;5.47;;;;;;;;;;5043974;28;20360;-78
2023/08/24 00:27:26;;;;;;;6.90;5.22;;;;;;;;;;5027123;28;20999;-77
2023/08/24 00:29:53;;;;;;;5.93;5.30;;;;;;;;;;5028435;28;20241;-77
2023/08/24 00:32:20;;;;;;;5.90;5.47;;;;;;;;;;5028425;28;20245;-77
2023/08/24 00:34:47;;;;;;;9.25;5.50;;;;;;;;;;5030513;28;20324;-77
2023/08/24 00:37:16;;;;;;;6.57;5.30;;;;;;;;;;5039899;28;20368;-77
2023/08/24 00:39:43;;;;;;;6.80;5.60;;;;;;;;;;5043402;28;20206;-77
2023/08/24 00:42:14;;;;;;;6.13;5.60;;;;;;;;;;5042148;28;20225;-76
2023/08/24 00:44:43;;;;;;;6.75;5.35;;;;;;;;;;5037672;28;20222;-77
2023/08/24 00:47:10;;;;;;;5.80;5.30;;;;;;;;;;5047503;28;20562;-77
2023/08/24 00:49:38;;;;;;;6.00;5.20;;;;;;;;;;5049748;28;20559;-77
2023/08/24 00:52:05;;;;;;;6.43;5.05;;;;;;;;;;5032189;28;20210;-77
2023/08/24 00:54:32;;;;;;;5.68;5.13;;;;;;;;;;5026705;28;20230;-77
2023/08/24 00:56:59;;;;;;;5.30;4.80;;;;;;;;;;5034218;28;20226;-77
2023/08/24 00:59:27;;;;;;;5.70;5.20;;;;;;;;;;5040542;28;21228;-77
2023/08/24 01:01:54;;;;;;;7.30;5.90;;;;;;;;;;5024479;28;20230;-77
2023/08/24 01:04:23;;;;;;;7.63;5.30;;;;;;;;;;5028334;28;20238;-77
2023/08/24 01:06:51;;;;;;;7.05;5.88;;;;;;;;;;5026144;28;20868;-77
2023/08/24 01:09:18;;;;;;;6.18;5.30;;;;;;;;;;5024058;28;20213;-77
2023/08/24 01:11:48;;;;;;;7.22;5.95;;;;;;;;;;5024039;28;20242;-77
2023/08/24 01:14:18;;;;;;;6.68;6.07;;;;;;;;;;5019278;28;20746;-76
2023/08/24 01:16:46;;;;;;;6.30;5.70;;;;;;;;;;5022870;28;20300;-77
2023/08/24 01:19:37;;;;;;;6.00;5.50;;;;;;;;;;5025198;28;20206;-76
2023/08/24 01:22:08;;;;;;;5.90;5.20;;;;;;;;;;5021870;28;20400;-77
2023/08/24 01:24:39;;;;;;;7.13;5.72;;;;;;;;;;5020492;28;20222;-77
2023/08/24 01:27:06;;;;;;;7.00;4.97;;;;;;;;;;5028394;28;20256;-77
2023/08/24 01:29:34;;;;;;;7.80;5.72;;;;;;;;;;5021659;28;20764;-77
2023/08/24 01:32:01;;;;;;;6.00;5.40;;;;;;;;;;5022590;28;20728;-77
2023/08/24 01:34:28;;;;;;;6.35;5.75;;;;;;;;;;5024817;28;20266;-77
2023/08/24 01:36:55;;;;;;;6.07;5.53;;;;;;;;;;5027390;28;20668;-77
2023/08/24 01:39:44;;;;;;;7.50;5.28;;;;;;;;;;5022348;28;20769;-77
2023/08/24 01:42:13;;;;;;;6.28;5.68;;;;;;;;;;5029736;28;20258;-77
2023/08/24 01:44:41;;;;;;;8.88;5.97;;;;;;;;;;5032819;28;20252;-76
2023/08/24 01:47:11;;;;;;;6.45;5.85;;;;;;;;;;5049267;28;20213;-77
2023/08/24 01:49:39;;;;;;;6.43;5.47;;;;;;;;;;5047722;28;20205;-77
2023/08/24 01:52:07;;;;;;;6.20;5.70;;;;;;;;;;5034046;28;21019;-76
2023/08/24 01:54:34;;;;;;;6.45;5.85;;;;;;;;;;5027643;28;20225;-76
2023/08/24 01:57:02;;;;;;;7.15;5.40;;;;;;;;;;5029295;28;20289;-76
2023/08/24 01:59:29;;;;;;;9.85;5.45;;;;;;;;;;5026430;28;20206;-77
2023/08/24 02:01:56;;;;;;;6.50;5.70;;;;;;;;;;5023311;28;20213;-77
2023/08/24 02:04:24;;;;;;;6.30;5.18;;;;;;;;;;5025842;28;20249;-77
2023/08/24 02:06:51;;;;;;;6.38;5.45;;;;;;;;;;5008905;28;20289;-77
2023/08/24 02:09:18;;;;;;;5.82;4.80;;;;;;;;;;5023847;28;20210;-77
2023/08/24 02:11:45;;;;;;;6.00;5.45;;;;;;;;;;5026221;28;20263;-77
2023/08/24 02:14:13;;;;;;;6.07;5.57;;;;;;;;;;5037746;28;20781;-77
2023/08/24 02:16:40;;;;;;;9.13;6.18;;;;;;;;;;5043416;28;20217;-77
2023/08/24 02:19:07;;;;;;;11.82;8.75;;;;;;;;;;5044636;28;20361;-77
2023/08/24 02:21:37;;;;;;;8.35;6.88;;;;;;;;;;5031331;28;20197;-77
2023/08/24 02:24:05;;;;;;;7.13;6.28;;;;;;;;;;5035706;28;20276;-77
2023/08/24 02:26:32;;;;;;;6.45;5.85;;;;;;;;;;5044098;28;20234;-77
2023/08/24 02:28:59;;;;;;;7.18;5.47;;;;;;;;;;5024149;28;20226;-77
2023/08/24 02:31:26;;;;;;;6.90;5.93;;;;;;;;;;5024045;28;20199;-77
2023/08/24 02:33:54;;;;;;;7.35;6.10;;;;;;;;;;5022675;28;20859;-77
2023/08/24 02:36:21;;;;;;;6.75;6.15;;;;;;;;;;5039456;28;20326;-77
2023/08/24 02:38:48;;;;;;;6.13;5.47;;;;;;;;;;5044239;28;20288;-78
2023/08/24 02:41:15;;;;;;;6.18;5.68;;;;;;;;;;5045250;28;20264;-77
2023/08/24 02:43:43;;;;;;;5.90;5.30;;;;;;;;;;5044038;28;20260;-78
2023/08/24 02:46:13;;;;;;;7.07;5.75;;;;;;;;;;5044576;28;20241;-77
2023/08/24 02:48:40;;;;;;;5.72;5.22;;;;;;;;;;5044180;28;20221;-77
2023/08/24 02:51:08;;;;;;;6.13;5.60;;;;;;;;;;5048804;28;20256;-77
2023/08/24 02:53:36;;;;;;;7.70;6.43;;;;;;;;;;5049606;28;20206;-77
2023/08/24 02:56:03;;;;;;;6.05;5.55;;;;;;;;;;5042313;28;20235;-77
2023/08/24 02:58:31;;;;;;;15.05;10.30;;;;;;;;;;5046238;28;20213;-77
2023/08/24 03:00:58;;;;;;;15.18;10.23;;;;;;;;;;5056656;28;20208;-77
2023/08/24 03:03:25;;;;;;;10.07;8.27;;;;;;;;;;5042614;28;20238;-77
2023/08/24 03:06:01;;;;;;;13.82;10.48;;;;;;;;;;5040723;28;20225;-76
2023/08/24 03:08:28;;;;;;;11.75;9.15;;;;;;;;;;5029094;28;20295;-77
2023/08/24 03:10:56;;;;;;;8.40;7.18;;;;;;;;;;5026485;28;20292;-77
2023/08/24 03:13:23;;;;;;;8.15;6.20;;;;;;;;;;5025903;28;20218;-76
2023/08/24 03:15:51;;;;;;;6.10;5.60;;;;;;;;;;5030136;28;20234;-77
2023/08/24 03:18:19;;;;;;;6.53;5.90;;;;;;;;;;5023574;28;20218;-77
2023/08/24 03:20:47;;;;;;;7.03;6.25;;;;;;;;;;5024842;28;20259;-77
2023/08/24 03:23:15;;;;;;;7.18;6.13;;;;;;;;;;5033830;28;21552;-77
2023/08/24 03:25:42;;;;;;;7.05;6.10;;;;;;;;;;5020171;28;20226;-77
2023/08/24 03:28:10;;;;;;;6.25;5.55;;;;;;;;;;5019873;28;20749;-77
2023/08/24 03:30:37;;;;;;;9.75;6.25;;;;;;;;;;5026447;28;21600;-77
2023/08/24 03:33:05;;;;;;;8.90;5.88;;;;;;;;;;5029509;28;20291;-77
2023/08/24 03:35:33;;;;;;;6.97;6.38;;;;;;;;;;5026864;28;20264;-77
2023/08/24 03:38:00;;;;;;;7.43;5.47;;;;;;;;;;5041108;28;20221;-76
2023/08/24 03:40:27;;;;;;;7.00;5.97;;;;;;;;;;5047888;28;20297;-77
2023/08/24 03:42:54;;;;;;;7.60;5.70;;;;;;;;;;5049032;28;20838;-78
2023/08/24 03:45:22;;;;;;;6.68;6.18;;;;;;;;;;5045507;28;20221;-78
2023/08/24 03:47:50;;;;;;;7.03;6.00;;;;;;;;;;5042701;28;20573;-77
2023/08/24 03:50:18;;;;;;;7.90;6.20;;;;;;;;;;5043653;28;20230;-77
2023/08/24 03:52:45;;;;;;;6.35;5.75;;;;;;;;;;5026003;28;20234;-77
2023/08/24 03:55:12;;;;;;;7.05;6.05;;;;;;;;;;5051100;28;20229;-77
2023/08/24 03:57:40;;;;;;;6.97;6.18;;;;;;;;;;5050316;28;20201;-77
2023/08/24 04:00:11;;;;;;;7.05;6.00;;;;;;;;;;5041894;28;20260;-77
2023/08/24 04:02:39;;;;;;;7.43;6.05;;;;;;;;;;5038606;28;20230;-77
2023/08/24 04:05:06;;;;;;;12.65;6.07;;;;;;;;;;5041025;28;20226;-77
2023/08/24 04:07:36;;;;;;;7.57;5.68;;;;;;;;;;5049227;28;20668;-77
2023/08/24 04:10:04;;;;;;;7.32;6.20;;;;;;;;;;5045504;28;20564;-77
2023/08/24 04:12:32;;;;;;;6.32;5.75;;;;;;;;;;5045944;28;20210;-77
2023/08/24 04:14:59;;;;;;;6.93;6.07;;;;;;;;;;5046558;28;20252;-77
2023/08/24 04:17:26;;;;;;;6.03;5.43;;;;;;;;;;5004150;28;20804;-76
2023/08/24 04:19:54;;;;;;;7.47;6.20;;;;;;;;;;5022801;28;20202;-77
2023/08/24 04:22:21;;;;;;;7.82;6.00;;;;;;;;;;5023707;28;20491;-78
2023/08/24 04:24:48;;;;;;;6.50;5.45;;;;;;;;;;5020730;28;20272;-77
2023/08/24 04:27:16;;;;;;;7.45;5.70;;;;;;;;;;5018499;28;20218;-77
2023/08/24 04:29:43;;;;;;;7.15;6.00;;;;;;;;;;5019894;28;20328;-76
2023/08/24 04:32:10;;;;;;;8.77;6.25;;;;;;;;;;5022804;28;21177;-76
2023/08/24 04:34:37;;;;;;;7.40;5.80;;;;;;;;;;5026812;28;20643;-77
2023/08/24 04:37:06;;;;;;;6.13;5.55;;;;;;;;;;5041893;28;20304;-77
2023/08/24 04:39:34;;;;;;;6.57;6.00;;;;;;;;;;5049555;28;20205;-77
2023/08/24 04:42:02;;;;;;;6.53;5.90;;;;;;;;;;5042924;28;20253;-77
2023/08/24 04:44:29;;;;;;;6.63;5.90;;;;;;;;;;5033314;28;20234;-77
2023/08/24 04:46:57;;;;;;;6.18;5.68;;;;;;;;;;5045140;28;20204;-77
2023/08/24 04:49:24;;;;;;;6.30;5.70;;;;;;;;;;5039324;28;20586;-77
2023/08/24 04:51:51;;;;;;;6.28;5.78;;;;;;;;;;5021748;28;20202;-77
2023/08/24 04:54:18;;;;;;;7.15;5.95;;;;;;;;;;5021170;28;20224;-77
2023/08/24 04:56:45;;;;;;;6.97;5.88;;;;;;;;;;5024295;28;20880;-77
2023/08/24 04:59:13;;;;;;;9.07;6.50;;;;;;;;;;5017888;28;20233;-77
2023/08/24 05:01:40;;;;;;;6.72;6.13;;;;;;;;;;5024182;28;20360;-76
2023/08/24 05:04:07;;;;;;;6.55;6.00;;;;;;;;;;5033860;28;20242;-77
2023/08/24 05:06:34;;;;;;;6.40;5.80;;;;;;;;;;5018826;28;20230;-76
2023/08/24 05:09:02;;;;;;;7.38;6.03;;;;;;;;;;5022831;28;20329;-75
2023/08/24 05:11:29;;;;;;;6.30;5.72;;;;;;;;;;5018799;28;21009;-78
2023/08/24 05:13:56;;;;;;;6.53;5.93;;;;;;;;;;5027440;28;20214;-77
2023/08/24 05:16:24;;;;;;;5.95;5.53;;;;;;;;;;5028711;28;20692;-77
2023/08/24 05:18:51;;;;;;;6.45;5.85;;;;;;;;;;5024231;28;20760;-77
2023/08/24 05:21:18;;;;;;;6.60;6.00;;;;;;;;;;5024674;28;20237;-76
2023/08/24 05:23:46;;;;;;;7.00;5.70;;;;;;;;;;5028142;28;20345;-77
2023/08/24 05:26:13;;;;;;;6.15;5.65;;;;;;;;;;5026443;28;20372;-75
2023/08/24 05:28:40;;;;;;;6.28;5.18;;;;;;;;;;5024676;28;20214;-77
2023/08/24 05:31:07;;;;;;;8.75;5.78;;;;;;;;;;5026504;28;20292;-76
2023/08/24 05:33:34;;;;;;;7.53;5.60;;;;;;;;;;5026303;28;20279;-77
2023/08/24 05:36:02;;;;;;;6.78;5.57;;;;;;;;;;5021695;28;20230;-77
2023/08/24 05:38:29;;;;;;;6.90;6.20;;;;;;;;;;5033559;28;20300;-77
2023/08/24 05:40:56;;;;;;;5.82;5.05;;;;;;;;;;5023108;28;20210;-77
2023/08/24 05:43:23;;;;;;;6.10;5.53;;;;;;;;;;5023324;28;20283;-77
2023/08/24 05:45:51;;;;;;;6.63;5.07;;;;;;;;;;5034079;28;20221;-77
2023/08/24 05:48:18;;;;;;;5.70;5.10;;;;;;;;;;5025000;28;20202;-77
2023/08/24 05:50:48;;;;;;;6.15;5.65;;;;;;;;;;5022546;28;20301;-77
2023/08/24 05:53:15;;;;;;;5.97;4.80;;;;;;;;;;5019499;28;20245;-75
2023/08/24 05:55:42;;;;;;;7.60;5.43;;;;;;;;;;5020921;28;20320;-77
2023/08/24 05:58:10;;;;;;;5.65;5.15;;;;;;;;;;5020024;28;20297;-77
2023/08/24 06:00:37;;;;;;;9.63;6.97;;;;;;;;;;5020498;28;20779;-75
2023/08/24 06:03:04;;;;;;;10.48;6.88;;;;;;;;;;5000363;28;20248;-77
2023/08/24 06:05:32;;;;;;;9.15;7.13;;;;;;;;;;5027582;28;21314;-77
2023/08/24 06:07:59;;;;;;;10.93;6.30;;;;;;;;;;5022602;28;20260;-77
2023/08/24 06:10:27;;;;;;;8.13;5.70;;;;;;;;;;5030171;28;20198;-76
2023/08/24 06:12:55;;;;;;;9.27;5.40;;;;;;;;;;5041077;28;20653;-76
2023/08/24 06:15:24;;;;;;;6.50;5.10;;;;;;;;;;5047193;28;20226;-76
2023/08/24 06:17:51;;;;;;;6.18;5.15;;;;;;;;;;5025263;28;20582;-77
2023/08/24 06:20:20;;;;;;;7.25;4.80;;;;;;;;;;5031081;28;20206;-76
2023/08/24 06:22:47;;;;;;;6.35;4.68;;;;;;;;;;5022969;28;20206;-77
2023/08/24 06:25:14;;;;;;;5.32;4.80;;;;;;;;;;5026424;28;20300;-77
2023/08/24 06:27:42;;;;;;;6.75;4.85;;;;;;;;;;5022809;28;20289;-77
2023/08/24 06:30:09;;;;;;;5.32;4.82;;;;;;;;;;5021414;28;20329;-76
2023/08/24 06:32:36;;;;;;;8.73;4.88;;;;;;;;;;5020124;28;21172;-77
2023/08/24 06:35:05;;;;;;;7.20;5.20;;;;;;;;;;5022520;28;20252;-77
2023/08/24 06:37:33;;;;;;;5.70;5.10;;;;;;;;;;5038785;28;20223;-77
2023/08/24 06:40:00;;;;;;;6.85;6.20;;;;;;;;;;5042760;28;20206;-77
2023/08/24 06:42:27;;;;;;;5.10;4.60;;;;;;;;;;5040846;28;20210;-77
2023/08/24 06:44:54;;;;;;;6.03;5.43;;;;;;;;;;5044788;28;20694;-76
2023/08/24 06:47:21;;;;;;;6.32;5.63;;;;;;;;;;5047190;28;20198;-76
2023/08/24 06:49:49;;;;;;;5.55;5.00;;;;;;;;;;5040922;22;20289;-63
2023/08/24 06:52:17;;;;;;;5.22;4.72;;;;;;;;;;4988110;28;20208;-62
2023/08/24 06:54:44;;;;;;;5.38;4.45;;;;;;;;;;5008821;28;20214;-64
2023/08/24 06:57:11;;;;;;;4.97;4.57;;;;;;;;;;4980873;28;20574;-62
2023/08/24 06:59:38;;;;;;;5.93;4.93;;;;;;;;;;4979479;28;20642;-62
2023/08/24 07:02:07;;;;;;;7.65;4.68;;;;;;;;;;4975146;28;20204;-61
2023/08/24 07:04:34;;;;;;;7.85;5.10;;;;;;;;;;4976296;28;20238;-63
2023/08/24 07:07:02;;;;;;;5.40;4.90;;;;;;;;;;4964065;28;20239;-62
2023/08/24 07:09:30;;;;;;;5.28;4.78;;;;;;;;;;4982250;28;20297;-62
2023/08/24 07:11:57;;;;;;;6.88;5.00;;;;;;;;;;4967475;28;20318;-62
2023/08/24 07:14:26;;;;;;;6.70;4.82;;;;;;;;;;4966124;28;20212;-61
2023/08/24 07:16:53;;;;;;;5.93;5.03;;;;;;;;;;4963372;28;20233;-64
2023/08/24 07:19:21;;;;;;;10.85;5.13;;;;;;;;;;4970242;28;20208;-62
2023/08/24 07:21:48;;;;;;;8.40;4.55;;;;;;;;;;4968451;28;20213;-61
2023/08/24 07:24:16;;;;;;;7.25;5.15;;;;;;;;;;4965138;28;20239;-61
2023/08/24 07:26:47;;;;;;;5.25;4.75;;;;;;;;;;4955146;28;20779;-62
2023/08/24 07:29:14;;;;;;;5.80;5.22;;;;;;;;;;4968380;28;20684;-63
2023/08/24 07:31:42;;;;;;;6.07;5.07;;;;;;;;;;4969356;28;20200;-62
2023/08/24 07:34:11;;;;;;;6.10;5.05;;;;;;;;;;4978382;28;20703;-61
2023/08/24 07:36:38;;;;;;;6.32;4.85;;;;;;;;;;4980586;28;20366;-63
2023/08/24 07:39:06;;;;;;;7.30;5.43;;;;;;;;;;4974857;28;20212;-61
2023/08/24 07:41:33;;;;;;;7.07;5.30;;;;;;;;;;4965760;28;20216;-61
2023/08/24 07:44:00;;;;;;;5.45;4.93;;;;;;;;;;4966988;28;20236;-61
2023/08/24 07:46:27;;;;;;;7.95;4.80;;;;;;;;;;4966287;28;20724;-61
2023/08/24 07:48:56;;;;;;;6.10;5.60;;;;;;;;;;4983085;28;20212;-64
2023/08/24 07:51:24;;;;;;;6.22;4.88;;;;;;;;;;4970674;28;20314;-61
2023/08/24 07:53:52;;;;;;;8.13;5.10;;;;;;;;;;4974101;28;20210;-63
2023/08/24 07:56:19;;;;;;;7.88;5.03;;;;;;;;;;4966207;28;20221;-61
2023/08/24 07:58:46;;;;;;;8.02;5.22;;;;;;;;;;4966039;28;20216;-64
2023/08/24 08:01:14;;;;;;;6.05;5.35;;;;;;;;;;4969373;28;20229;-65
2023/08/24 08:03:41;;;;;;;7.45;5.85;;;;;;;;;;4969914;28;20334;-65
2023/08/24 08:06:09;;;;;;;6.32;5.32;;;;;;;;;;4966789;28;20718;-62
2023/08/24 08:08:36;;;;;;;6.10;5.47;;;;;;;;;;4978168;28;20209;-63
2023/08/24 08:11:03;;;;;;;6.18;5.03;;;;;;;;;;4986990;28;20655;-64
2023/08/24 08:13:31;;;;;;;6.20;5.60;;;;;;;;;;4986885;28;20208;-65
2023/08/24 08:16:06;;;;;;;5.70;5.07;;;;;;;;;;4986654;28;20904;-63
2023/08/24 08:18:34;;;;;;;7.45;5.38;;;;;;;;;;4988941;28;20203;-64
2023/08/24 08:21:03;;;;;;;9.32;5.80;;;;;;;;;;4977464;28;20208;-62
2023/08/24 08:23:30;;;;;;;7.43;5.65;;;;;;;;;;4974875;28;20196;-65
2023/08/24 08:25:58;;;;;;;9.10;5.57;;;;;;;;;;4973000;28;20230;-65
2023/08/24 08:28:25;;;;;;;8.23;6.20;;;;;;;;;;4976968;28;20210;-61
2023/08/24 08:30:52;;;;;;;7.13;5.97;;;;;;;;;;4960522;28;21261;-63
2023/08/24 08:33:21;;;;;;;8.73;5.75;;;;;;;;;;4985981;28;20205;-63
2023/08/24 08:35:49;;;;;;;6.30;5.70;;;;;;;;;;4976932;28;20231;-60
2023/08/24 08:38:16;;;;;;;7.03;5.93;;;;;;;;;;4989031;28;20215;-61
2023/08/24 08:40:44;;;;;;;7.50;6.07;;;;;;;;;;4986068;28;20208;-65
2023/08/24 08:43:11;;;;;;;11.32;5.93;;;;;;;;;;4987729;28;20212;-64
2023/08/24 08:45:38;;;;;;;6.75;5.80;;;;;;;;;;4985843;28;20228;-63
2023/08/24 08:48:07;;;;;;;7.25;5.45;;;;;;;;;;4979810;28;20649;-61
2023/08/24 08:50:35;;;;;;;9.07;5.57;;;;;;;;;;4972003;28;20235;-62
2023/08/24 08:53:02;;;;;;;7.40;5.40;;;;;;;;;;4971388;28;20204;-66
2023/08/24 08:55:31;;;;;;;9.38;5.40;;;;;;;;;;4973174;28;20242;-63
2023/08/24 08:57:59;;;;;;;7.00;5.30;;;;;;;;;;4970503;28;20213;-61
2023/08/24 09:00:27;;;;;;;10.35;6.32;;;;;;;;;;4971706;28;20431;-61
2023/08/24 09:02:56;;;;;;;7.45;5.85;;;;;;;;;;4972323;28;20308;-61
2023/08/24 09:05:26;;;;;;;7.95;5.68;;;;;;;;;;4967923;28;20267;-67
2023/08/24 09:07:56;;;;;;;7.75;6.00;;;;;;;;;;4969132;28;20806;-63
2023/08/24 09:10:24;;;;;;;8.13;5.88;;;;;;;;;;4972245;28;20624;-61
2023/08/24 09:12:51;;;;;;;10.77;5.57;;;;;;;;;;4967967;28;20215;-61
2023/08/24 09:15:26;;;;;;;11.27;5.60;;;;;;;;;;4966743;28;21235;-62
2023/08/24 09:17:56;;;;;;;9.60;5.57;;;;;;;;;;4970819;28;20215;-63
2023/08/24 09:20:29;;;;;;;7.32;5.68;;;;;;;;;;4966362;28;20303;-62
2023/08/24 09:22:59;;;;;;;7.30;5.78;;;;;;;;;;4966196;28;20767;-64
2023/08/24 09:25:27;;;;;;;9.55;5.30;;;;;;;;;;4974009;28;20318;-61
2023/08/24 09:27:58;;;;;;;11.27;5.38;;;;;;;;;;4951846;28;20204;-64
2023/08/24 09:30:32;;;;;;;9.68;5.72;;;;;;;;;;4947609;28;20315;-63
2023/08/24 09:33:14;;;;;;;9.75;5.85;;;;;;;;;;4967286;28;20242;-63
2023/08/24 09:35:41;;;;;;;7.65;5.53;;;;;;;;;;4947340;28;20231;-61
2023/08/24 09:38:18;;;;;;;11.82;5.75;;;;;;;;;;4963533;28;20212;-63
2023/08/24 09:40:50;;;;;;;9.15;5.22;;;;;;;;;;4970968;28;20693;-63
2023/08/24 09:43:18;;;;;;;8.25;5.07;;;;;;;;;;4965188;28;20212;-63
2023/08/24 09:46:06;;;;;;;7.45;5.38;;;;;;;;;;4970623;28;20232;-63
2023/08/24 09:48:33;;;;;;;8.63;5.65;;;;;;;;;;4969259;28;20211;-63
2023/08/24 09:51:04;;;;;;;7.93;5.50;;;;;;;;;;4967536;28;20201;-63
2023/08/24 09:53:33;;;;;;;8.25;5.78;;;;;;;;;;4966952;28;20204;-62
2023/08/24 09:56:01;;;;;;;5.90;5.30;;;;;;;;;;4968026;28;20299;-64
2023/08/24 09:58:29;;;;;;;10.35;6.28;;;;;;;;;;4965491;28;20327;-63
2023/08/24 10:00:57;;;;;;;10.45;4.97;;;;;;;;;;4967585;28;20692;-62
2023/08/24 10:03:28;;;;;;;7.07;5.35;;;;;;;;;;4970923;28;20296;-62
2023/08/24 10:06:00;;;;;;;9.48;5.50;;;;;;;;;;4974155;28;20232;-63
2023/08/24 10:08:37;;;;;;;9.02;5.13;;;;;;;;;;4972470;28;20972;-63
2023/08/24 10:11:06;;;;;;;8.65;5.32;;;;;;;;;;4985225;28;20200;-64
2023/08/24 10:13:59;;;;;;;8.70;5.40;;;;;;;;;;4985275;28;20233;-62
2023/08/24 10:16:28;;;;;;;7.32;5.22;;;;;;;;;;4972993;28;20243;-62
2023/08/24 10:18:55;;;;;;;8.95;5.30;;;;;;;;;;4972673;28;20696;-63
2023/08/24 10:21:27;;;;;;;10.93;5.10;;;;;;;;;;4971291;28;20825;-62
2023/08/24 10:23:55;;;;;;;7.70;5.28;;;;;;;;;;4967076;28;20204;-64
2023/08/24 10:26:23;;;;;;;8.63;5.15;;;;;;;;;;4971216;28;20296;-63
2023/08/24 10:28:51;;;;;;;7.65;5.32;;;;;;;;;;4966044;28;20217;-64
2023/08/24 10:31:19;;;;;;;10.35;5.82;;;;;;;;;;4968383;28;20215;-62
2023/08/24 10:33:47;;;;;;;9.02;5.18;;;;;;;;;;4968163;28;20208;-63
2023/08/24 10:36:18;;;;;;;10.45;5.22;;;;;;;;;;4972168;28;20330;-64
2023/08/24 10:38:45;;;;;;;9.43;5.22;;;;;;;;;;4980225;28;20232;-63
2023/08/24 10:41:13;;;;;;;7.88;5.35;;;;;;;;;;4981717;28;20211;-65
2023/08/24 10:43:48;;;;;;;8.43;5.22;;;;;;;;;;4984964;28;20203;-61
2023/08/24 10:46:18;;;;;;;7.13;5.07;;;;;;;;;;4987505;28;20535;-61
2023/08/24 10:48:49;;;;;;;7.60;5.25;;;;;;;;;;4975607;28;20212;-62
2023/08/24 10:51:20;;;;;;;8.85;5.13;;;;;;;;;;4980913;28;20204;-62
2023/08/24 10:53:48;;;;;;;8.38;5.13;;;;;;;;;;4972532;28;21361;-62
2023/08/24 10:56:16;;;;;;;6.45;4.53;;;;;;;;;;4968172;28;20228;-63
2023/08/24 10:58:47;;;;;;;8.93;5.32;;;;;;;;;;4976150;28;20209;-61
2023/08/24 11:01:23;;;;;;;9.50;5.32;;;;;;;;;;4975273;28;20216;-63
2023/08/24 11:03:59;;;;;;;9.88;5.13;;;;;;;;;;4980481;28;20211;-64
2023/08/24 11:06:28;;;;;;;7.65;5.50;;;;;;;;;;4990705;28;20235;-63
2023/08/24 11:09:13;;;;;;;5.72;4.97;;;;;;;;;;4981147;28;20299;-63
2023/08/24 11:11:41;;;;;;;6.45;5.20;;;;;;;;;;4980341;28;20196;-64
2023/08/24 11:14:26;;;;;;;9.60;4.80;;;;;;;;;;4978531;28;20439;-61
2023/08/24 11:16:54;;;;;;;8.88;5.10;;;;;;;;;;4979230;28;20701;-63
2023/08/24 11:19:21;;;;;;;6.80;4.78;;;;;;;;;;4977402;28;20212;-65
2023/08/24 11:21:49;;;;;;;8.82;5.45;;;;;;;;;;4972709;28;20211;-63
2023/08/24 11:24:19;;;;;;;6.80;5.35;;;;;;;;;;4955598;28;20278;-62
2023/08/24 11:26:48;;;;;;;6.55;5.00;;;;;;;;;;4973969;28;20784;-63
2023/08/24 11:29:15;;;;;;;9.65;5.15;;;;;;;;;;4977948;28;20204;-62
2023/08/24 11:31:42;;;;;;;8.13;5.00;;;;;;;;;;4980826;28;20263;-65
2023/08/24 11:34:10;;;;;;;5.68;5.05;;;;;;;;;;4983764;28;20208;-62
2023/08/24 11:36:44;;;;;;;7.20;5.03;;;;;;;;;;4974696;28;20811;-63
2023/08/24 11:39:22;;;;;;;9.00;5.60;;;;;;;;;;4974568;28;20209;-63
2023/08/24 11:42:02;;;;;;;10.57;5.47;;;;;;;;;;4978364;28;20208;-63
2023/08/24 11:44:30;;;;;;;6.22;5.28;;;;;;;;;;4978429;28;20239;-64
2023/08/24 11:46:58;;;;;;;11.82;5.18;;;;;;;;;;4950500;28;20652;-61
2023/08/24 11:49:26;;;;;;;10.45;5.72;;;;;;;;;;4967692;28;20223;-64
2023/08/24 11:51:55;;;;;;;9.50;4.93;;;;;;;;;;4964119;28;20211;-65
2023/08/24 11:54:22;;;;;;;6.63;4.47;;;;;;;;;;4974008;28;20215;-63
2023/08/24 11:56:49;;;;;;;10.15;5.30;;;;;;;;;;4954164;28;20224;-65
2023/08/24 11:59:17;;;;;;;9.32;5.20;;;;;;;;;;4974943;28;20209;-63
2023/08/24 12:01:45;;;;;;;9.95;5.60;;;;;;;;;;4969697;28;20208;-63
2023/08/24 12:04:12;;;;;;;8.93;5.32;;;;;;;;;;4968775;28;20332;-64
2023/08/24 12:06:40;;;;;;;7.18;5.28;;;;;;;;;;4971636;28;20246;-65
2023/08/24 12:09:07;;;;;;;6.30;5.28;;;;;;;;;;4971343;28;20204;-61
2023/08/24 12:11:38;;;;;;;9.63;4.70;;;;;;;;;;4978923;28;20208;-63
2023/08/24 12:14:09;;;;;;;9.00;4.90;;;;;;;;;;4972209;28;20204;-64
2023/08/24 12:16:38;;;;;;;7.63;4.70;;;;;;;;;;4972301;28;20235;-63
2023/08/24 12:19:08;;;;;;;13.25;4.70;;;;;;;;;;4974920;28;20205;-64
2023/08/24 12:21:35;;;;;;;6.28;3.85;;;;;;;;;;4974153;28;20220;-64
2023/08/24 12:24:05;;;;;;;9.07;4.53;;;;;;;;;;4975502;28;20244;-65
2023/08/24 12:26:34;;;;;;;8.57;4.35;;;;;;;;;;4970998;28;20438;-64
2023/08/24 12:29:03;;;;;;;9.85;4.97;;;;;;;;;;4971521;28;20208;-64
2023/08/24 12:31:30;;;;;;;10.88;4.95;;;;;;;;;;4975872;28;20203;-62
2023/08/24 12:33:59;;;;;;;11.02;4.45;;;;;;;;;;4974240;28;21096;-64
2023/08/24 12:36:27;;;;;;;8.38;4.22;;;;;;;;;;4983499;28;20220;-63
2023/08/24 12:38:55;;;;;;;11.55;4.88;;;;;;;;;;4991765;28;20302;-64
2023/08/24 12:41:23;;;;;;;12.43;4.93;;;;;;;;;;4986570;28;20962;-64
2023/08/24 12:43:53;;;;;;;10.48;5.18;;;;;;;;;;4984680;28;20204;-63
2023/08/24 12:46:21;;;;;;;9.52;5.18;;;;;;;;;;4989840;28;20242;-63
2023/08/24 12:48:48;;;;;;;8.90;4.75;;;;;;;;;;4988187;28;20253;-64
2023/08/24 12:51:15;;;;;;;11.57;5.15;;;;;;;;;;4990229;28;20200;-64
2023/08/24 12:53:43;;;;;;;10.80;5.68;;;;;;;;;;4972727;28;20208;-60
2023/08/24 12:56:11;;;;;;;8.75;5.18;;;;;;;;;;4989605;28;20238;-62
2023/08/24 12:58:38;;;;;;;10.52;5.03;;;;;;;;;;4987336;28;20270;-63
2023/08/24 13:01:06;;;;;;;9.85;5.45;;;;;;;;;;4970111;28;20205;-63
2023/08/24 13:03:35;;;;;;;8.70;5.50;;;;;;;;;;4986599;28;20211;-63
2023/08/24 13:06:03;;;;;;;8.63;5.22;;;;;;;;;;4990575;28;20235;-63
2023/08/24 13:08:51;;;;;;;9.98;5.30;;;;;;;;;;4978310;28;20206;-63
2023/08/24 13:11:18;;;;;;;9.98;5.18;;;;;;;;;;4974916;28;20211;-64
2023/08/24 13:13:46;;;;;;;8.35;5.70;;;;;;;;;;4984750;28;20208;-61
2023/08/24 13:16:14;;;;;;;10.85;5.35;;;;;;;;;;4971266;28;20278;-63
2023/08/24 13:18:43;;;;;;;9.18;5.35;;;;;;;;;;4977713;28;20245;-64
2023/08/24 13:21:10;;;;;;;13.00;5.20;;;;;;;;;;4977651;28;20204;-62
2023/08/24 13:23:37;;;;;;;10.07;5.45;;;;;;;;;;4975726;28;20426;-63
2023/08/24 13:26:05;;;;;;;10.63;5.60;;;;;;;;;;4976996;28;20696;-65
2023/08/24 13:28:32;;;;;;;10.38;5.53;;;;;;;;;;4977623;28;20689;-61
2023/08/24 13:30:59;;;;;;;9.80;5.25;;;;;;;;;;4975100;28;20580;-64
2023/08/24 13:33:27;;;;;;;14.70;5.95;;;;;;;;;;4964882;28;20204;-62
2023/08/24 13:35:54;;;;;;;9.15;5.57;;;;;;;;;;4981685;28;20227;-63
2023/08/24 13:38:22;;;;;;;10.00;4.95;;;;;;;;;;4990060;28;20203;-62
2023/08/24 13:40:50;;;;;;;15.38;5.88;;;;;;;;;;4976285;28;20204;-63
2023/08/24 13:43:19;;;;;;;11.98;5.35;;;;;;;;;;4986807;28;20216;-64
2023/08/24 13:45:47;;;;;;;11.32;5.70;;;;;;;;;;4987316;28;20223;-62
2023/08/24 13:48:14;;;;;;;12.50;5.40;;;;;;;;;;4988470;28;20207;-64
2023/08/24 13:50:42;;;;;;;12.45;5.60;;;;;;;;;;4980234;28;20231;-63
2023/08/24 13:53:09;;;;;;;7.88;5.35;;;;;;;;;;4969083;28;20208;-64
2023/08/24 13:55:41;;;;;;;12.10;5.72;;;;;;;;;;4969042;28;20286;-65
2023/08/24 13:58:08;;;;;;;8.45;5.30;;;;;;;;;;4970840;28;20218;-63
2023/08/24 14:00:35;;;;;;;13.25;5.38;;;;;;;;;;4974705;28;20215;-62
2023/08/24 14:03:03;;;;;;;8.13;4.85;;;;;;;;;;4970657;28;20417;-64
2023/08/24 14:05:30;;;;;;;12.88;5.32;;;;;;;;;;4970653;28;20322;-63
2023/08/24 14:07:58;;;;;;;11.80;5.63;;;;;;;;;;4968196;28;20144;-62
2023/08/24 14:10:25;;;;;;;8.27;5.18;;;;;;;;;;4975323;28;20203;-63
2023/08/24 14:12:52;;;;;;;8.45;5.65;;;;;;;;;;4989220;28;20568;-63
2023/08/24 14:15:20;;;;;;;11.15;5.35;;;;;;;;;;4985605;28;20224;-64
2023/08/24 14:17:47;;;;;;;13.57;5.18;;;;;;;;;;4982202;28;20208;-63
2023/08/24 14:20:15;;;;;;;10.27;5.13;;;;;;;;;;4971185;28;20211;-63
2023/08/24 14:22:45;;;;;;;13.93;5.93;;;;;;;;;;4971756;28;20212;-63
2023/08/24 14:25:12;;;;;;;10.88;5.30;;;;;;;;;;4968415;28;20227;-61
2023/08/24 14:27:41;;;;;;;12.45;5.53;;;;;;;;;;4967227;28;20208;-62
2023/08/24 14:30:14;;;;;;;10.95;5.30;;;;;;;;;;4971797;28;20226;-63
2023/08/24 14:32:41;;;;;;;10.95;5.22;;;;;;;;;;4968917;28;20265;-62
2023/08/24 14:35:09;;;;;;;14.20;5.50;;;;;;;;;;4974582;28;20224;-63
2023/08/24 14:37:38;;;;;;;11.07;5.35;;;;;;;;;;4983591;28;20203;-63
2023/08/24 14:40:06;;;;;;;12.75;5.47;;;;;;;;;;4986622;28;20216;-63
2023/08/24 14:42:33;;;;;;;11.63;5.25;;;;;;;;;;4984068;28;20207;-62
2023/08/24 14:45:01;;;;;;;8.27;5.38;;;;;;;;;;4985427;28;20227;-63
2023/08/24 14:47:28;;;;;;;11.68;5.18;;;;;;;;;;4991162;28;20277;-63